Mekhanik Pustoshny — UCBM — position and weather

sailwx.info

Track history (hours):
 
Tides and Currents Weather Stations Pressure Air Temp Water Temp Dewpoint Dewpoint Depression Visibility Wind Speed Wind Dir Waves Ship Positions

Mekhanik Pustoshny

Last reported at 2018-Feb-13 11:24 UTC. Time now 2018-Feb-23 04:57 UTC.
Position N 70°16' E 031°55'.
Warning: this ship's position is 9 days out of date.

Length 85 m; beam 15 m.

Type: Ship. MMSI: 273114000.

Date/timePositionNaut miles runAvg speedWind from/ knotsBaromVisibWave heightAir tempDewpointWater temp
2018-Feb-13 11:24N 70°16' E 031°55'410.3
2018-Feb-13 11:00N 70°19' E 031°45'510.2
2018-Feb-13 10:30N 70°23' E 031°35'510.5
2018-Feb-13 10:00N 70°26' E 031°23'510.4
2018-Feb-13 09:30N 70°30' E 031°12'510.1
2018-Feb-13 09:00N 70°34' E 031°01'510.1
2018-Feb-13 08:30N 70°37' E 030°50'510.2
2018-Feb-13 08:00N 70°39' E 030°36'510.5
2018-Feb-13 07:30N 70°42' E 030°23'510.8
2018-Feb-13 07:00N 70°45' E 030°09'511.0
2018-Feb-13 06:30N 70°48' E 029°55'510.7
2018-Feb-13 06:00N 70°51' E 029°41'510.9
2018-Feb-13 05:30N 70°54' E 029°27'611.0
2018-Feb-13 05:00N 70°57' E 029°12'510.2
2018-Feb-13 04:29N 70°60' E 028°60'5 9.3
2018-Feb-13 04:00N 71°02' E 028°48'5 9.1
2018-Feb-13 03:30N 71°05' E 028°36'510.9
2018-Feb-13 03:00N 71°07' E 028°22'611.1
2018-Feb-13 02:30N 71°09' E 028°05'611.1
2018-Feb-13 02:00N 71°09' E 027°48'611.8
2018-Feb-13 01:30N 71°10' E 027°30'611.7
2018-Feb-13 01:00N 71°11' E 027°12'510.7
2018-Feb-13 00:30N 71°12' E 026°55'510.4
2018-Feb-13 00:00N 71°13' E 026°39'510.5
2018-Feb-12 23:30N 71°13' E 026°23'510.1
2018-Feb-12 23:00N 71°14' E 026°07'510.4
2018-Feb-12 22:30N 71°14' E 025°51'611.3
2018-Feb-12 22:00N 71°14' E 025°34'611.5
2018-Feb-12 21:29N 71°14' E 025°15'511.3
2018-Feb-12 21:00N 71°13' E 024°58'611.5
2018-Feb-12 20:30N 71°12' E 024°41'611.6
2018-Feb-12 20:00N 71°12' E 024°23'612.0
2018-Feb-12 19:30N 71°10' E 024°04'611.7
2018-Feb-12 19:00N 71°08' E 023°48'611.8
2018-Feb-12 18:30N 71°06' E 023°32'611.5
2018-Feb-12 18:00N 71°03' E 023°16'611.5
2018-Feb-12 17:30N 71°00' E 023°00'510.9
2018-Feb-12 17:00N 70°58' E 022°45'510.5
2018-Feb-12 16:30N 70°56' E 022°30'510.8
2018-Feb-12 16:00N 70°53' E 022°16'510.8
2018-Feb-12 15:29N 70°51' E 022°01'510.9
2018-Feb-12 15:00N 70°48' E 021°46'611.4
2018-Feb-12 14:30N 70°46' E 021°31'1111.2
2018-Feb-12 13:28N 70°41' E 020°59'511.2
2018-Feb-12 13:00N 70°39' E 020°45'510.4
2018-Feb-12 12:30N 70°36' E 020°31'510.8
2018-Feb-12 12:00N 70°34' E 020°16'611.1
2018-Feb-12 11:30N 70°31' E 020°02'611.1
2018-Feb-12 11:00N 70°29' E 019°46'511.0
2018-Feb-12 10:30N 70°26' E 019°32'611.4
2018-Feb-12 10:00N 70°24' E 019°17'611.4
2018-Feb-12 09:30N 70°21' E 019°01'611.2
2018-Feb-12 09:00N 70°19' E 018°47'611.2
2018-Feb-12 08:30N 70°15' E 018°33'611.5
2018-Feb-12 08:00N 70°11' E 018°21'611.6
2018-Feb-12 07:28N 70°07' E 018°08'511.4
2018-Feb-12 06:59N 70°03' E 017°56'511.3
2018-Feb-12 06:30N 69°60' E 017°45'611.6
2018-Feb-12 06:00N 69°56' E 017°32'611.4
2018-Feb-12 05:30N 69°52' E 017°19'611.2
2018-Feb-12 05:00N 69°48' E 017°08'611.8
2018-Feb-12 04:30N 69°44' E 016°55'611.9
2018-Feb-12 04:00N 69°40' E 016°43'612.1
2018-Feb-12 03:30N 69°36' E 016°30'612.2
2018-Feb-12 03:00N 69°32' E 016°17'611.9
2018-Feb-12 02:30N 69°28' E 016°05'612.7
2018-Feb-12 02:00N 69°23' E 015°51'612.4
2018-Feb-12 01:29N 69°19' E 015°38'612.0
2018-Feb-12 01:00N 69°15' E 015°26'612.1
2018-Feb-12 00:29N 69°11' E 015°13'612.2
2018-Feb-12 00:00N 69°07' E 015°00'611.6
2018-Feb-11 23:29N 69°03' E 014°48'611.8
2018-Feb-11 23:00N 68°59' E 014°38'612.1
2018-Feb-11 22:30N 68°54' E 014°28'612.2
2018-Feb-11 22:00N 68°49' E 014°17'612.0
2018-Feb-11 21:30N 68°44' E 014°07'611.8
2018-Feb-11 21:00N 68°39' E 013°58'611.8
2018-Feb-11 20:30N 68°35' E 013°49'611.8
2018-Feb-11 20:00N 68°30' E 013°40'611.6
2018-Feb-11 19:29N 68°25' E 013°30'611.7
2018-Feb-11 18:59N 68°20' E 013°20'511.5
2018-Feb-11 18:30N 68°16' E 013°11'510.8
2018-Feb-11 18:00N 68°11' E 013°04'611.5
2018-Feb-11 17:30N 68°06' E 012°55'611.5
2018-Feb-11 16:59N 68°02' E 012°46'611.8
2018-Feb-11 16:30N 67°57' E 012°37'611.7
2018-Feb-11 15:59N 67°52' E 012°27'611.1
2018-Feb-11 15:29N 67°48' E 012°19'5911.0
2018-Feb-11 10:09N 66°50' E 011°50'212.7
2018-Feb-11 10:00N 66°48' E 011°50'612.4
2018-Feb-11 09:30N 66°42' E 011°52'612.1
2018-Feb-11 09:00N 66°36' E 011°52'611.8
2018-Feb-11 08:30N 66°30' E 011°46'611.8
2018-Feb-11 08:00N 66°25' E 011°39'611.9
2018-Feb-11 07:30N 66°20' E 011°33'6611.9
2018-Feb-11 01:59N 65°18' E 010°35'612.7
2018-Feb-11 01:30N 65°13' E 010°30'9012.5
2018-Feb-10 18:18N 63°60' E 008°27'413.0
2018-Feb-10 18:00N 63°57' E 008°22'712.9
2018-Feb-10 17:30N 63°52' E 008°12'612.6
2018-Feb-10 17:00N 63°47' E 008°03'612.2
2018-Feb-10 16:30N 63°43' E 007°54'611.8
2018-Feb-10 16:00N 63°38' E 007°45'611.9
2018-Feb-10 15:30N 63°34' E 007°36'612.4
2018-Feb-10 15:00N 63°30' E 007°26'612.3
2018-Feb-10 14:29N 63°25' E 007°16'612.4
2018-Feb-10 14:00N 63°20' E 007°08'612.0
2018-Feb-10 13:29N 63°16' E 006°58'611.4
2018-Feb-10 13:00N 63°12' E 006°49'611.3
2018-Feb-10 12:30N 63°08' E 006°41'611.5
2018-Feb-10 11:59N 63°03' E 006°33'511.2
2018-Feb-10 11:30N 62°60' E 006°24'611.4
2018-Feb-10 11:00N 62°56' E 006°15'611.7
2018-Feb-10 10:30N 62°52' E 006°05'612.2
2018-Feb-10 10:00N 62°49' E 005°54'712.9
2018-Feb-10 09:30N 62°46' E 005°41'612.3
2018-Feb-10 09:00N 62°43' E 005°29'611.9
2018-Feb-10 08:30N 62°40' E 005°18'55611.1
2018-Feb-08 06:30N 55°45' W 006°45'611.6
2018-Feb-08 06:00N 55°40' W 006°40'25 9.9
2018-Feb-08 03:30N 55°25' W 006°06'9 8.6
2018-Feb-08 02:30N 55°19' W 005°55'8 8.1
2018-Feb-08 01:30N 55°12' W 005°48'5 9.3
2018-Feb-08 01:00N 55°08' W 005°44'1510.2
2018-Feb-07 23:34N 54°55' W 005°32'111.1
2018-Feb-07 23:27N 54°54' W 005°31'511.4
2018-Feb-07 23:00N 54°49' W 005°27'611.8
2018-Feb-07 22:30N 54°44' W 005°22'611.9
2018-Feb-07 22:00N 54°38' W 005°20'612.3
2018-Feb-07 21:31N 54°32' W 005°20'  
2018-Feb-05 12:51N 54°06' W 006°16'1 1.8
2018-Feb-05 12:20N 54°05' W 006°15'411.2
2018-Feb-05 12:00N 54°03' W 006°10'510.6
2018-Feb-05 11:30N 53°60' W 006°02'4 7.9
2018-Feb-05 11:00N 53°56' W 006°01'510.3
2018-Feb-05 10:30N 53°51' W 005°58'611.2
2018-Feb-05 10:00N 53°46' W 005°55'4910.0
2018-Feb-05 05:06N 52°58' W 005°35'1 8.1
2018-Feb-05 04:59N 52°57' W 005°35'4 8.5
2018-Feb-05 04:30N 52°53' W 005°36'4 8.6
2018-Feb-05 04:00N 52°49' W 005°37'11010.7
2018-Feb-04 17:43N 50°59' W 005°52'210.2
2018-Feb-04 17:30N 50°57' W 005°52'61 6.7
2018-Feb-04 08:24N 49°57' W 005°33'14 7.9
2018-Feb-04 06:40N 49°54' W 005°12'1 7.9
2018-Feb-04 06:29N 49°54' W 005°10'4 8.4
2018-Feb-04 06:01N 49°55' W 005°03'5 9.0
2018-Feb-04 05:26N 49°56' W 004°56'4 9.5
2018-Feb-04 05:00N 49°57' W 004°49'510.0
2018-Feb-04 04:30N 49°58' W 004°42'510.3
2018-Feb-04 03:59N 49°59' W 004°34'510.6
2018-Feb-04 03:30N 50°00' W 004°26'510.9
2018-Feb-04 03:00N 50°02' W 004°18'611.3
2018-Feb-04 02:30N 50°03' W 004°09'611.4
2018-Feb-04 02:00N 50°05' W 004°01'611.5
2018-Feb-04 01:29N 50°06' W 003°52'511.3
2018-Feb-04 01:00N 50°07' W 003°44'510.7
2018-Feb-04 00:30N 50°09' W 003°36'5 9.8
2018-Feb-04 00:00N 50°10' W 003°28'5 9.8
2018-Feb-03 23:30N 50°15' W 003°25'5 9.6
2018-Feb-03 23:00N 50°19' W 003°21'5 9.4
2018-Feb-03 22:30N 50°23' W 003°18'5 9.4
2018-Feb-03 22:00N 50°27' W 003°15'5 9.5
2018-Feb-03 21:30N 50°32' W 003°12'5 9.0
2018-Feb-03 21:00N 50°36' W 003°10'0 0.3
2018-Feb-03 20:29N 50°36' W 003°10'0 0.0
2018-Feb-03 19:59N 50°36' W 003°10'0 0.0
2018-Feb-03 18:29N 50°36' W 003°10'0 0.0
2018-Feb-03 17:59N 50°36' W 003°10'0 0.0
2018-Feb-03 17:29N 50°36' W 003°10'0 0.1
2018-Feb-03 16:59N 50°36' W 003°10'0 0.0
2018-Feb-03 15:59N 50°36' W 003°10'0 0.0
2018-Feb-03 15:29N 50°36' W 003°10'0 0.0
2018-Feb-03 14:59N 50°36' W 003°10'0 0.0
2018-Feb-03 14:29N 50°36' W 003°10'0 0.0
2018-Feb-03 13:59N 50°36' W 003°10'0 0.0
2018-Feb-03 13:29N 50°36' W 003°10'0 0.0
2018-Feb-03 12:59N 50°36' W 003°10'0 0.0
2018-Feb-03 12:23N 50°36' W 003°10'0 0.0
2018-Feb-03 11:59N 50°36' W 003°10'0 0.0
2018-Feb-03 11:29N 50°36' W 003°10'  
Track history (hours):
 
Tides and Currents Weather Stations Pressure Air Temp Water Temp Dewpoint Dewpoint Depression Visibility Wind Speed Wind Dir Waves Ship Positions

Mekhanik Pustoshny

Last reported at 2018-Feb-13 11:24 UTC. Time now 2018-Feb-23 04:57 UTC.
Position N 70°16' E 031°55'.
Warning: this ship's position is 9 days out of date.

Length 85 m; beam 15 m.

Type: Ship. MMSI: 273114000.

Date/timePositionNaut miles runAvg speedWind from/ knotsBaromVisibWave heightAir tempDewpointWater temp
2018-Feb-13 11:24N 70°16' E 031°55'410.3
2018-Feb-13 11:00N 70°19' E 031°45'510.2
2018-Feb-13 10:30N 70°23' E 031°35'510.5
2018-Feb-13 10:00N 70°26' E 031°23'510.4
2018-Feb-13 09:30N 70°30' E 031°12'510.1
2018-Feb-13 09:00N 70°34' E 031°01'510.1
2018-Feb-13 08:30N 70°37' E 030°50'510.2
2018-Feb-13 08:00N 70°39' E 030°36'510.5
2018-Feb-13 07:30N 70°42' E 030°23'510.8
2018-Feb-13 07:00N 70°45' E 030°09'511.0
2018-Feb-13 06:30N 70°48' E 029°55'510.7
2018-Feb-13 06:00N 70°51' E 029°41'510.9
2018-Feb-13 05:30N 70°54' E 029°27'611.0
2018-Feb-13 05:00N 70°57' E 029°12'510.2
2018-Feb-13 04:29N 70°60' E 028°60'5 9.3
2018-Feb-13 04:00N 71°02' E 028°48'5 9.1
2018-Feb-13 03:30N 71°05' E 028°36'510.9
2018-Feb-13 03:00N 71°07' E 028°22'611.1
2018-Feb-13 02:30N 71°09' E 028°05'611.1
2018-Feb-13 02:00N 71°09' E 027°48'611.8
2018-Feb-13 01:30N 71°10' E 027°30'611.7
2018-Feb-13 01:00N 71°11' E 027°12'510.7
2018-Feb-13 00:30N 71°12' E 026°55'510.4
2018-Feb-13 00:00N 71°13' E 026°39'510.5
2018-Feb-12 23:30N 71°13' E 026°23'510.1
2018-Feb-12 23:00N 71°14' E 026°07'510.4
2018-Feb-12 22:30N 71°14' E 025°51'611.3
2018-Feb-12 22:00N 71°14' E 025°34'611.5
2018-Feb-12 21:29N 71°14' E 025°15'511.3
2018-Feb-12 21:00N 71°13' E 024°58'611.5
2018-Feb-12 20:30N 71°12' E 024°41'611.6
2018-Feb-12 20:00N 71°12' E 024°23'612.0
2018-Feb-12 19:30N 71°10' E 024°04'611.7
2018-Feb-12 19:00N 71°08' E 023°48'611.8
2018-Feb-12 18:30N 71°06' E 023°32'611.5
2018-Feb-12 18:00N 71°03' E 023°16'611.5
2018-Feb-12 17:30N 71°00' E 023°00'510.9
2018-Feb-12 17:00N 70°58' E 022°45'510.5
2018-Feb-12 16:30N 70°56' E 022°30'510.8
2018-Feb-12 16:00N 70°53' E 022°16'510.8
2018-Feb-12 15:29N 70°51' E 022°01'510.9
2018-Feb-12 15:00N 70°48' E 021°46'611.4
2018-Feb-12 14:30N 70°46' E 021°31'1111.2
2018-Feb-12 13:28N 70°41' E 020°59'511.2
2018-Feb-12 13:00N 70°39' E 020°45'510.4
2018-Feb-12 12:30N 70°36' E 020°31'510.8
2018-Feb-12 12:00N 70°34' E 020°16'611.1
2018-Feb-12 11:30N 70°31' E 020°02'611.1
2018-Feb-12 11:00N 70°29' E 019°46'511.0
2018-Feb-12 10:30N 70°26' E 019°32'611.4
2018-Feb-12 10:00N 70°24' E 019°17'611.4
2018-Feb-12 09:30N 70°21' E 019°01'611.2
2018-Feb-12 09:00N 70°19' E 018°47'611.2
2018-Feb-12 08:30N 70°15' E 018°33'611.5
2018-Feb-12 08:00N 70°11' E 018°21'611.6
2018-Feb-12 07:28N 70°07' E 018°08'511.4
2018-Feb-12 06:59N 70°03' E 017°56'511.3
2018-Feb-12 06:30N 69°60' E 017°45'611.6
2018-Feb-12 06:00N 69°56' E 017°32'611.4
2018-Feb-12 05:30N 69°52' E 017°19'611.2
2018-Feb-12 05:00N 69°48' E 017°08'611.8
2018-Feb-12 04:30N 69°44' E 016°55'611.9
2018-Feb-12 04:00N 69°40' E 016°43'612.1
2018-Feb-12 03:30N 69°36' E 016°30'612.2
2018-Feb-12 03:00N 69°32' E 016°17'611.9
2018-Feb-12 02:30N 69°28' E 016°05'612.7
2018-Feb-12 02:00N 69°23' E 015°51'612.4
2018-Feb-12 01:29N 69°19' E 015°38'612.0
2018-Feb-12 01:00N 69°15' E 015°26'612.1
2018-Feb-12 00:29N 69°11' E 015°13'612.2
2018-Feb-12 00:00N 69°07' E 015°00'611.6
2018-Feb-11 23:29N 69°03' E 014°48'611.8
2018-Feb-11 23:00N 68°59' E 014°38'612.1
2018-Feb-11 22:30N 68°54' E 014°28'612.2
2018-Feb-11 22:00N 68°49' E 014°17'612.0
2018-Feb-11 21:30N 68°44' E 014°07'611.8
2018-Feb-11 21:00N 68°39' E 013°58'611.8
2018-Feb-11 20:30N 68°35' E 013°49'611.8
2018-Feb-11 20:00N 68°30' E 013°40'611.6
2018-Feb-11 19:29N 68°25' E 013°30'611.7
2018-Feb-11 18:59N 68°20' E 013°20'511.5
2018-Feb-11 18:30N 68°16' E 013°11'510.8
2018-Feb-11 18:00N 68°11' E 013°04'611.5
2018-Feb-11 17:30N 68°06' E 012°55'611.5
2018-Feb-11 16:59N 68°02' E 012°46'611.8
2018-Feb-11 16:30N 67°57' E 012°37'611.7
2018-Feb-11 15:59N 67°52' E 012°27'611.1
2018-Feb-11 15:29N 67°48' E 012°19'5911.0
2018-Feb-11 10:09N 66°50' E 011°50'212.7
2018-Feb-11 10:00N 66°48' E 011°50'612.4
2018-Feb-11 09:30N 66°42' E 011°52'612.1
2018-Feb-11 09:00N 66°36' E 011°52'611.8
2018-Feb-11 08:30N 66°30' E 011°46'611.8
2018-Feb-11 08:00N 66°25' E 011°39'611.9
2018-Feb-11 07:30N 66°20' E 011°33'6611.9
2018-Feb-11 01:59N 65°18' E 010°35'612.7
2018-Feb-11 01:30N 65°13' E 010°30'9012.5
2018-Feb-10 18:18N 63°60' E 008°27'413.0
2018-Feb-10 18:00N 63°57' E 008°22'712.9
2018-Feb-10 17:30N 63°52' E 008°12'612.6
2018-Feb-10 17:00N 63°47' E 008°03'612.2
2018-Feb-10 16:30N 63°43' E 007°54'611.8
2018-Feb-10 16:00N 63°38' E 007°45'611.9
2018-Feb-10 15:30N 63°34' E 007°36'612.4
2018-Feb-10 15:00N 63°30' E 007°26'612.3
2018-Feb-10 14:29N 63°25' E 007°16'612.4
2018-Feb-10 14:00N 63°20' E 007°08'612.0
2018-Feb-10 13:29N 63°16' E 006°58'611.4
2018-Feb-10 13:00N 63°12' E 006°49'611.3
2018-Feb-10 12:30N 63°08' E 006°41'611.5
2018-Feb-10 11:59N 63°03' E 006°33'511.2
2018-Feb-10 11:30N 62°60' E 006°24'611.4
2018-Feb-10 11:00N 62°56' E 006°15'611.7
2018-Feb-10 10:30N 62°52' E 006°05'612.2
2018-Feb-10 10:00N 62°49' E 005°54'712.9
2018-Feb-10 09:30N 62°46' E 005°41'612.3
2018-Feb-10 09:00N 62°43' E 005°29'611.9
2018-Feb-10 08:30N 62°40' E 005°18'55611.1
2018-Feb-08 06:30N 55°45' W 006°45'611.6
2018-Feb-08 06:00N 55°40' W 006°40'25 9.9
2018-Feb-08 03:30N 55°25' W 006°06'9 8.6
2018-Feb-08 02:30N 55°19' W 005°55'8 8.1
2018-Feb-08 01:30N 55°12' W 005°48'5 9.3
2018-Feb-08 01:00N 55°08' W 005°44'1510.2
2018-Feb-07 23:34N 54°55' W 005°32'111.1
2018-Feb-07 23:27N 54°54' W 005°31'511.4
2018-Feb-07 23:00N 54°49' W 005°27'611.8
2018-Feb-07 22:30N 54°44' W 005°22'611.9
2018-Feb-07 22:00N 54°38' W 005°20'612.3
2018-Feb-07 21:31N 54°32' W 005°20'  
2018-Feb-05 12:51N 54°06' W 006°16'1 1.8
2018-Feb-05 12:20N 54°05' W 006°15'411.2
2018-Feb-05 12:00N 54°03' W 006°10'510.6
2018-Feb-05 11:30N 53°60' W 006°02'4 7.9
2018-Feb-05 11:00N 53°56' W 006°01'510.3
2018-Feb-05 10:30N 53°51' W 005°58'611.2
2018-Feb-05 10:00N 53°46' W 005°55'4910.0
2018-Feb-05 05:06N 52°58' W 005°35'1 8.1
2018-Feb-05 04:59N 52°57' W 005°35'4 8.5
2018-Feb-05 04:30N 52°53' W 005°36'4 8.6
2018-Feb-05 04:00N 52°49' W 005°37'11010.7
2018-Feb-04 17:43N 50°59' W 005°52'210.2
2018-Feb-04 17:30N 50°57' W 005°52'61 6.7
2018-Feb-04 08:24N 49°57' W 005°33'14 7.9
2018-Feb-04 06:40N 49°54' W 005°12'1 7.9
2018-Feb-04 06:29N 49°54' W 005°10'4 8.4
2018-Feb-04 06:01N 49°55' W 005°03'5 9.0
2018-Feb-04 05:26N 49°56' W 004°56'4 9.5
2018-Feb-04 05:00N 49°57' W 004°49'510.0
2018-Feb-04 04:30N 49°58' W 004°42'510.3
2018-Feb-04 03:59N 49°59' W 004°34'510.6
2018-Feb-04 03:30N 50°00' W 004°26'510.9
2018-Feb-04 03:00N 50°02' W 004°18'611.3
2018-Feb-04 02:30N 50°03' W 004°09'611.4
2018-Feb-04 02:00N 50°05' W 004°01'611.5
2018-Feb-04 01:29N 50°06' W 003°52'511.3
2018-Feb-04 01:00N 50°07' W 003°44'510.7
2018-Feb-04 00:30N 50°09' W 003°36'5 9.8
2018-Feb-04 00:00N 50°10' W 003°28'5 9.8
2018-Feb-03 23:30N 50°15' W 003°25'5 9.6
2018-Feb-03 23:00N 50°19' W 003°21'5 9.4
2018-Feb-03 22:30N 50°23' W 003°18'5 9.4
2018-Feb-03 22:00N 50°27' W 003°15'5 9.5
2018-Feb-03 21:30N 50°32' W 003°12'5 9.0
2018-Feb-03 21:00N 50°36' W 003°10'0 0.3
2018-Feb-03 20:29N 50°36' W 003°10'0 0.0
2018-Feb-03 19:59N 50°36' W 003°10'0 0.0
2018-Feb-03 18:29N 50°36' W 003°10'0 0.0
2018-Feb-03 17:59N 50°36' W 003°10'0 0.0
2018-Feb-03 17:29N 50°36' W 003°10'0 0.1
2018-Feb-03 16:59N 50°36' W 003°10'0 0.0
2018-Feb-03 15:59N 50°36' W 003°10'0 0.0
2018-Feb-03 15:29N 50°36' W 003°10'0 0.0
2018-Feb-03 14:59N 50°36' W 003°10'0 0.0
2018-Feb-03 14:29N 50°36' W 003°10'0 0.0
2018-Feb-03 13:59N 50°36' W 003°10'0 0.0
2018-Feb-03 13:29N 50°36' W 003°10'0 0.0
2018-Feb-03 12:59N 50°36' W 003°10'0 0.0
2018-Feb-03 12:23N 50°36' W 003°10'0 0.0
2018-Feb-03 11:59N 50°36' W 003°10'0 0.0
2018-Feb-03 11:29N 50°36' W 003°10'  

Dump ship's entire track history